createdAt,value
2023-03-06T00:29:11.217Z,92.90
2023-03-06T00:31:38.006Z,93.44
2023-03-06T00:34:04.668Z,95.13
2023-03-06T00:36:31.321Z,95.92
2023-03-06T00:38:57.961Z,96.93
2023-03-06T00:41:25.014Z,97.20
2023-03-06T00:43:51.614Z,97.20
2023-03-06T00:46:18.257Z,96.69
2023-03-06T00:48:44.928Z,96.82
2023-03-06T00:51:13.865Z,98.82
2023-03-06T00:53:40.711Z,99.43
2023-03-06T00:56:09.212Z,99.83
2023-03-06T00:58:37.399Z,100.00
2023-03-06T01:01:04.376Z,100.00
2023-03-06T01:03:31.310Z,100.00
2023-03-06T01:05:57.977Z,100.00
2023-03-06T01:08:24.550Z,100.00
2023-03-06T01:10:51.173Z,100.00
2023-03-06T01:13:18.117Z,100.00
2023-03-06T01:15:44.876Z,100.00
2023-03-06T01:18:11.513Z,100.00
2023-03-06T01:20:38.378Z,100.00
2023-03-06T01:23:05.058Z,100.00
2023-03-06T01:25:31.626Z,100.00
2023-03-06T01:27:58.178Z,100.00
2023-03-06T01:30:24.796Z,100.00
2023-03-06T01:32:51.552Z,100.00
2023-03-06T01:35:18.947Z,100.00
2023-03-06T01:37:45.729Z,100.00
2023-03-06T01:40:13.066Z,100.00
2023-03-06T01:42:39.920Z,100.00
2023-03-06T01:45:29.067Z,100.00
2023-03-06T01:47:55.748Z,100.00
2023-03-06T01:50:22.348Z,100.00
2023-03-06T01:52:52.468Z,100.00
2023-03-06T01:55:26.454Z,100.00
2023-03-06T01:57:57.844Z,100.00
2023-03-06T02:00:27.775Z,100.00
2023-03-06T02:03:00.967Z,100.00
2023-03-06T02:05:27.581Z,100.00
2023-03-06T02:07:54.706Z,100.00
2023-03-06T02:10:22.111Z,100.00
2023-03-06T02:12:50.772Z,100.00
2023-03-06T02:15:20.496Z,100.00
2023-03-06T02:17:49.865Z,100.00
2023-03-06T02:20:27.482Z,100.00
2023-03-06T02:23:32.183Z,100.00
2023-03-06T02:26:01.532Z,100.00
2023-03-06T02:28:28.478Z,100.00
2023-03-06T02:30:56.499Z,100.00
2023-03-06T02:33:26.622Z,100.00
2023-03-06T02:35:56.224Z,100.00
2023-03-06T02:38:27.809Z,100.00
2023-03-06T02:40:55.182Z,100.00
2023-03-06T02:43:26.117Z,100.00
2023-03-06T02:45:52.856Z,100.00
2023-03-06T02:48:20.772Z,100.00
2023-03-06T02:50:48.146Z,100.00
2023-03-06T02:53:17.261Z,100.00
2023-03-06T02:55:44.280Z,100.00
2023-03-06T02:58:10.898Z,100.00
2023-03-06T03:00:37.507Z,100.00
2023-03-06T03:03:05.072Z,100.00
2023-03-06T03:05:32.592Z,100.00
2023-03-06T03:07:59.280Z,100.00
2023-03-06T03:10:26.086Z,100.00
2023-03-06T03:12:52.784Z,100.00
2023-03-06T03:15:19.581Z,100.00
2023-03-06T03:17:46.193Z,100.00
2023-03-06T03:20:15.498Z,100.00
2023-03-06T03:22:42.121Z,100.00
2023-03-06T03:25:09.294Z,100.00
2023-03-06T03:27:35.932Z,100.00
2023-03-06T03:30:02.578Z,100.00
2023-03-06T03:32:29.615Z,100.00
2023-03-06T03:34:56.686Z,100.00
2023-03-06T03:37:23.348Z,100.00
2023-03-06T03:39:49.999Z,100.00
2023-03-06T03:42:16.620Z,100.00
2023-03-06T03:44:43.225Z,100.00
2023-03-06T03:47:09.951Z,100.00
2023-03-06T03:49:36.672Z,100.00
2023-03-06T03:52:03.464Z,100.00
2023-03-06T03:54:30.174Z,100.00
2023-03-06T03:56:57.145Z,100.00
2023-03-06T03:59:24.013Z,100.00
2023-03-06T04:01:50.838Z,100.00
2023-03-06T04:04:17.498Z,100.00
2023-03-06T04:06:44.260Z,100.00
2023-03-06T04:09:10.802Z,100.00
2023-03-06T04:11:37.550Z,100.00
2023-03-06T04:14:04.384Z,100.00
2023-03-06T04:16:31.155Z,100.00
2023-03-06T04:18:57.918Z,100.00
2023-03-06T04:21:24.486Z,100.00
2023-03-06T04:23:51.162Z,100.00
2023-03-06T04:26:17.838Z,100.00
2023-03-06T04:28:44.438Z,100.00
2023-03-06T04:31:12.844Z,100.00
2023-03-06T04:33:39.853Z,100.00
2023-03-06T04:36:06.766Z,100.00
2023-03-06T04:38:33.409Z,100.00
2023-03-06T04:41:00.124Z,100.00
2023-03-06T04:43:27.067Z,100.00
2023-03-06T04:45:53.787Z,100.00
2023-03-06T04:48:20.635Z,100.00
2023-03-06T04:50:47.254Z,100.00
2023-03-06T04:53:14.745Z,100.00
2023-03-06T04:55:41.375Z,100.00
2023-03-06T04:58:07.932Z,100.00
2023-03-06T05:00:34.797Z,100.00
2023-03-06T05:03:01.698Z,100.00
2023-03-06T05:05:29.191Z,100.00
2023-03-06T05:07:56.437Z,100.00
2023-03-06T05:10:23.962Z,100.00
2023-03-06T05:12:50.824Z,100.00
2023-03-06T05:15:17.962Z,100.00
2023-03-06T05:17:44.921Z,100.00
2023-03-06T05:20:13.059Z,100.00
2023-03-06T05:22:40.028Z,100.00
2023-03-06T05:25:07.478Z,100.00
2023-03-06T05:27:34.589Z,100.00
2023-03-06T05:30:01.430Z,100.00
2023-03-06T05:32:28.284Z,100.00
2023-03-06T05:34:55.014Z,100.00
2023-03-06T05:37:23.122Z,100.00
2023-03-06T05:39:50.976Z,100.00
2023-03-06T05:42:18.440Z,100.00
2023-03-06T05:44:45.378Z,100.00
2023-03-06T05:47:12.221Z,100.00
2023-03-06T05:49:39.033Z,100.00
2023-03-06T05:52:07.806Z,100.00
2023-03-06T05:54:36.283Z,100.00
2023-03-06T05:57:04.955Z,100.00
2023-03-06T05:59:33.150Z,100.00
2023-03-06T06:02:01.189Z,100.00
2023-03-06T06:04:28.261Z,100.00
2023-03-06T06:07:00.468Z,100.00
2023-03-06T06:09:28.236Z,97.51
2023-03-06T06:11:57.913Z,100.00
2023-03-06T06:14:24.980Z,95.08
2023-03-06T06:16:52.123Z,81.51
2023-03-06T06:19:20.150Z,85.40
2023-03-06T06:21:48.622Z,73.39
2023-03-06T06:24:16.923Z,69.57
2023-03-06T06:26:44.510Z,66.30
2023-03-06T06:29:12.588Z,67.33
2023-03-06T06:31:39.976Z,68.09
2023-03-06T06:34:08.203Z,64.96
2023-03-06T06:36:34.831Z,62.07
2023-03-06T06:39:01.551Z,66.95
2023-03-06T06:41:50.640Z,62.25
2023-03-06T06:44:16.199Z,68.35
2023-03-06T06:49:32.865Z,63.11
2023-03-06T06:52:00.134Z,68.46
2023-03-06T06:54:27.303Z,62.49
2023-03-06T06:56:54.311Z,62.22
2023-03-06T06:59:23.614Z,62.89
2023-03-06T07:01:51.421Z,65.96
2023-03-06T07:04:19.242Z,61.73
2023-03-06T07:06:46.299Z,61.10
2023-03-06T07:09:13.762Z,59.34
2023-03-06T07:11:41.037Z,56.69
2023-03-06T07:14:07.692Z,55.46
2023-03-06T07:16:34.417Z,55.28
2023-03-06T07:19:01.140Z,54.61
2023-03-06T07:21:27.897Z,55.61
2023-03-06T07:23:57.401Z,56.13
2023-03-06T07:26:25.287Z,54.35
2023-03-06T07:28:53.742Z,54.34
2023-03-06T07:31:26.626Z,52.92
2023-03-06T07:33:54.495Z,52.13
2023-03-06T07:36:23.014Z,53.20
2023-03-06T07:38:49.690Z,50.03
2023-03-06T07:41:17.257Z,50.54
2023-03-06T07:43:45.323Z,49.50
2023-03-06T07:46:13.451Z,50.19
2023-03-06T07:48:40.978Z,51.12
2023-03-06T07:51:14.849Z,51.42
2023-03-06T07:53:41.507Z,51.92
2023-03-06T07:56:09.312Z,52.09
2023-03-06T07:58:36.768Z,52.27
2023-03-06T08:01:08.264Z,52.23
2023-03-06T08:03:35.071Z,52.14
2023-03-06T08:06:13.411Z,51.13
2023-03-06T08:08:41.737Z,50.84
2023-03-06T08:11:10.391Z,51.73
2023-03-06T08:13:38.285Z,51.11
2023-03-06T08:16:06.001Z,51.14
2023-03-06T08:18:33.154Z,51.34
2023-03-06T08:21:07.114Z,51.20
2023-03-06T08:23:34.705Z,52.32
2023-03-06T08:26:04.490Z,52.35
2023-03-06T08:28:31.416Z,51.39
2023-03-06T08:30:58.570Z,52.98
2023-03-06T08:33:25.528Z,51.50
2023-03-06T08:35:52.719Z,50.78
2023-03-06T08:38:19.445Z,50.15
2023-03-06T08:40:46.045Z,51.11
2023-03-06T08:43:14.183Z,50.29
2023-03-06T08:45:41.001Z,49.77
2023-03-06T08:48:07.723Z,50.26
2023-03-06T08:50:34.481Z,49.82
2023-03-06T08:53:01.335Z,48.50
2023-03-06T08:55:28.293Z,49.64
2023-03-06T08:57:54.960Z,51.09
2023-03-06T09:00:21.692Z,51.47
2023-03-06T09:02:48.366Z,50.73
2023-03-06T09:05:14.992Z,49.98
2023-03-06T09:07:41.548Z,49.15
2023-03-06T09:10:12.734Z,49.11
2023-03-06T09:12:49.908Z,49.61
2023-03-06T09:15:19.175Z,49.17
2023-03-06T09:17:45.960Z,48.52
2023-03-06T09:20:12.950Z,49.28
2023-03-06T09:22:39.681Z,48.57
2023-03-06T09:25:06.877Z,48.64
2023-03-06T09:27:33.565Z,48.59
2023-03-06T09:30:00.260Z,47.75
2023-03-06T09:32:26.941Z,48.41
2023-03-06T09:34:53.865Z,48.20
2023-03-06T09:37:20.581Z,47.38
2023-03-06T09:39:47.280Z,48.06
2023-03-06T09:42:20.457Z,48.19
2023-03-06T09:44:59.892Z,48.66
2023-03-06T09:47:47.833Z,48.40
2023-03-06T09:50:17.160Z,48.41
2023-03-06T09:53:15.368Z,48.14
2023-03-06T09:55:46.710Z,48.61
2023-03-06T09:58:25.144Z,47.01
2023-03-06T10:01:06.562Z,46.04
2023-03-06T10:04:05.215Z,44.87
2023-03-06T10:06:49.139Z,44.60
2023-03-06T10:09:15.731Z,44.63
2023-03-06T10:11:48.822Z,44.21
2023-03-06T10:14:37.708Z,43.44
2023-03-06T10:17:05.845Z,42.89
2023-03-06T10:19:37.726Z,43.88
2023-03-06T10:22:37.050Z,43.72
2023-03-06T10:25:20.363Z,44.40
2023-03-06T10:27:50.296Z,45.72
2023-03-06T10:30:38.631Z,45.29
2023-03-06T10:33:21.387Z,43.99
2023-03-06T10:35:53.698Z,44.35
2023-03-06T10:38:48.392Z,43.92
2023-03-06T10:41:30.588Z,44.70
2023-03-06T10:43:59.934Z,44.55
2023-03-06T10:46:33.339Z,45.23
2023-03-06T10:49:02.326Z,45.38
2023-03-06T10:51:30.323Z,44.85
2023-03-06T10:53:59.895Z,44.84
2023-03-06T10:56:38.291Z,44.56
2023-03-06T10:59:22.991Z,44.56
2023-03-06T11:01:54.944Z,44.93
2023-03-06T11:04:32.494Z,45.05
2023-03-06T11:07:15.465Z,44.74
2023-03-06T11:09:52.329Z,42.36
2023-03-06T11:12:30.319Z,40.71
2023-03-06T11:15:32.461Z,40.07
2023-03-06T11:18:34.917Z,39.24
2023-03-06T11:21:04.209Z,39.45
2023-03-06T11:23:47.243Z,39.88
2023-03-06T11:26:13.855Z,39.80
2023-03-06T11:28:43.927Z,39.79
2023-03-06T11:31:18.649Z,40.89
2023-03-06T11:34:05.104Z,40.47
2023-03-06T11:36:54.411Z,39.63
2023-03-06T11:39:26.450Z,39.46
2023-03-06T11:42:02.131Z,38.87
2023-03-06T11:44:43.719Z,38.78
2023-03-06T11:47:18.349Z,39.40
2023-03-06T11:49:49.432Z,39.17
2023-03-06T11:52:23.156Z,41.67
2023-03-06T11:54:54.723Z,41.73
2023-03-06T11:57:42.107Z,41.41
2023-03-06T12:00:17.706Z,40.07
2023-03-06T12:02:56.030Z,40.25
2023-03-06T12:05:31.794Z,39.07
2023-03-06T12:08:20.675Z,39.92
2023-03-06T12:11:26.455Z,39.44
2023-03-06T12:14:01.017Z,38.15
2023-03-06T12:16:58.718Z,38.93
2023-03-06T12:19:31.351Z,39.29
2023-03-06T12:22:09.641Z,38.24
2023-03-06T12:24:55.330Z,38.33
2023-03-06T12:27:33.723Z,37.87
2023-03-06T12:30:20.570Z,38.05
2023-03-06T12:33:14.830Z,40.15
2023-03-06T12:35:44.390Z,40.15
2023-03-06T12:38:46.214Z,39.33
2023-03-06T12:41:12.827Z,40.54
2023-03-06T12:43:40.139Z,40.61
2023-03-06T12:46:15.336Z,40.03
2023-03-06T12:48:48.579Z,41.08
2023-03-06T12:51:20.475Z,39.95
2023-03-06T12:53:49.260Z,39.40
2023-03-06T12:56:18.268Z,38.11
2023-03-06T12:58:54.621Z,38.17
2023-03-06T13:01:36.315Z,38.65
2023-03-06T13:04:19.602Z,39.21
2023-03-06T13:07:01.764Z,39.14
2023-03-06T13:10:02.560Z,39.03
2023-03-06T13:12:41.272Z,38.75
2023-03-06T13:15:29.763Z,38.36
2023-03-06T13:17:56.947Z,39.15
2023-03-06T13:20:44.522Z,39.42
2023-03-06T13:23:29.671Z,39.55
2023-03-06T13:26:25.574Z,38.35
2023-03-06T13:28:54.111Z,39.02
2023-03-06T13:31:34.443Z,38.16
2023-03-06T13:34:06.276Z,38.51
2023-03-06T13:36:39.606Z,37.01
2023-03-06T13:39:12.873Z,36.07
2023-03-06T13:41:52.927Z,36.32
2023-03-06T13:44:25.661Z,38.12
2023-03-06T13:47:06.103Z,38.57
2023-03-06T13:49:34.513Z,39.59
2023-03-06T13:52:03.711Z,39.32
2023-03-06T13:54:59.985Z,40.38
2023-03-06T13:57:38.247Z,40.78
2023-03-06T14:00:32.693Z,40.70
2023-03-06T14:03:14.300Z,40.21
2023-03-06T14:05:46.563Z,40.50
2023-03-06T14:08:28.408Z,41.09
2023-03-06T14:11:02.454Z,41.29
2023-03-06T14:13:45.445Z,40.27
2023-03-06T14:16:22.664Z,39.64
2023-03-06T14:18:55.419Z,39.04
2023-03-06T14:21:36.998Z,37.40
2023-03-06T14:24:05.580Z,37.60
2023-03-06T14:26:39.348Z,37.05
2023-03-06T14:29:20.796Z,34.99
2023-03-06T14:31:50.813Z,34.58
2023-03-06T14:34:35.589Z,35.49
2023-03-06T14:37:05.542Z,36.07
2023-03-06T14:39:41.534Z,36.46
2023-03-06T14:42:21.481Z,37.15
2023-03-06T14:44:49.727Z,38.49
2023-03-06T14:47:29.134Z,39.54
2023-03-06T14:50:17.446Z,40.26
2023-03-06T14:52:44.419Z,40.88
2023-03-06T14:55:16.987Z,41.11
2023-03-06T14:57:44.018Z,42.02
2023-03-06T15:00:17.415Z,42.85
2023-03-06T15:02:45.207Z,41.91
2023-03-06T15:05:31.002Z,41.94
2023-03-06T15:08:02.483Z,42.75
2023-03-06T15:10:35.636Z,42.68
2023-03-06T15:13:22.379Z,42.57
2023-03-06T15:15:56.166Z,43.13
2023-03-06T15:18:30.629Z,42.84
2023-03-06T15:21:16.679Z,42.29
2023-03-06T15:23:46.900Z,42.50
2023-03-06T15:26:33.469Z,42.11
2023-03-06T15:29:10.229Z,42.05
2023-03-06T15:31:42.230Z,42.22
2023-03-06T15:34:11.469Z,42.67
2023-03-06T15:36:46.067Z,42.83
2023-03-06T15:39:36.985Z,42.90
2023-03-06T15:42:22.432Z,43.34
2023-03-06T15:44:53.793Z,43.55
2023-03-06T15:47:21.629Z,43.72
2023-03-06T15:49:52.051Z,44.07
2023-03-06T15:52:22.108Z,44.26
2023-03-06T15:54:51.847Z,44.47
2023-03-06T15:57:29.101Z,44.54
2023-03-06T15:59:57.813Z,44.70
2023-03-06T16:02:24.741Z,44.57
2023-03-06T16:04:53.508Z,45.25
2023-03-06T16:07:20.798Z,45.47
2023-03-06T16:09:47.574Z,46.33
2023-03-06T16:12:20.522Z,47.05
2023-03-06T16:14:48.508Z,47.04
2023-03-06T16:17:16.091Z,47.36
2023-03-06T16:19:43.473Z,48.07
2023-03-06T16:22:10.627Z,48.30
2023-03-06T16:24:37.752Z,47.46
2023-03-06T16:27:04.835Z,47.21
2023-03-06T16:29:31.870Z,47.41
2023-03-06T16:32:00.717Z,46.80
2023-03-06T16:34:27.714Z,46.76
2023-03-06T16:36:54.502Z,46.64
2023-03-06T16:39:22.894Z,46.51
2023-03-06T16:41:50.632Z,46.80
2023-03-06T16:44:17.331Z,47.06
2023-03-06T16:46:46.173Z,46.98
2023-03-06T16:49:24.066Z,47.19
2023-03-06T16:51:51.621Z,47.19
2023-03-06T16:54:18.821Z,47.22
2023-03-06T16:56:45.936Z,47.58
2023-03-06T16:59:12.724Z,47.44
2023-03-06T17:01:42.698Z,47.05
2023-03-06T17:04:09.756Z,47.44
2023-03-06T17:06:36.743Z,47.39
2023-03-06T17:09:04.621Z,47.78
2023-03-06T17:11:31.362Z,47.57
2023-03-06T17:13:58.008Z,47.74
2023-03-06T17:16:24.651Z,48.30
2023-03-06T17:18:52.491Z,47.84
2023-03-06T17:21:19.224Z,47.59
2023-03-06T17:23:46.207Z,47.22
2023-03-06T17:26:18.877Z,47.30
2023-03-06T17:28:46.718Z,47.51
2023-03-06T17:31:17.686Z,46.90
2023-03-06T17:33:44.936Z,47.05
2023-03-06T17:36:14.368Z,47.12
2023-03-06T17:38:41.874Z,47.33
2023-03-06T17:41:10.016Z,47.95
2023-03-06T17:43:38.078Z,47.88
2023-03-06T17:46:06.904Z,47.67
2023-03-06T17:48:34.138Z,47.74
2023-03-06T17:51:01.124Z,48.16
2023-03-06T17:53:28.330Z,47.87
2023-03-06T17:55:55.588Z,48.57
2023-03-06T17:58:22.307Z,48.46
2023-03-06T18:00:49.221Z,48.14
2023-03-06T18:03:15.915Z,48.27
2023-03-06T18:05:42.468Z,48.23
2023-03-06T18:08:10.312Z,48.17
2023-03-06T18:10:41.564Z,48.97
2023-03-06T18:13:09.016Z,48.98
2023-03-06T18:15:39.820Z,49.27
2023-03-06T18:18:07.291Z,49.66
2023-03-06T18:20:34.259Z,49.88
2023-03-06T18:23:03.608Z,50.42
2023-03-06T18:25:32.415Z,50.48
2023-03-06T18:27:59.462Z,50.96
2023-03-06T18:30:26.928Z,51.55
2023-03-06T18:32:54.008Z,51.97
2023-03-06T18:35:21.175Z,52.37
2023-03-06T18:37:47.871Z,52.46
2023-03-06T18:40:15.073Z,52.81
2023-03-06T18:42:42.153Z,53.06
2023-03-06T18:45:09.858Z,53.03
2023-03-06T18:47:36.766Z,53.72
2023-03-06T18:50:03.725Z,53.89
2023-03-06T18:52:34.602Z,54.60
2023-03-06T18:55:10.243Z,54.61
2023-03-06T18:57:37.566Z,54.86
2023-03-06T19:00:07.850Z,54.73
2023-03-06T19:02:35.167Z,55.08
2023-03-06T19:05:05.715Z,54.85
2023-03-06T19:07:46.577Z,54.79
2023-03-06T19:10:17.518Z,55.43
2023-03-06T19:12:47.944Z,55.55
2023-03-06T19:15:22.223Z,55.96
2023-03-06T19:17:59.474Z,56.06
2023-03-06T19:20:31.376Z,56.68
2023-03-06T19:23:09.379Z,56.71
2023-03-06T19:25:40.212Z,57.03
2023-03-06T19:28:10.806Z,56.97
2023-03-06T19:30:41.232Z,57.73
2023-03-06T19:33:13.230Z,57.67
2023-03-06T19:35:42.226Z,57.86
2023-03-06T19:38:21.021Z,57.79
2023-03-06T19:40:51.305Z,57.79
2023-03-06T19:43:18.048Z,58.25
2023-03-06T19:45:44.801Z,57.94
2023-03-06T19:48:13.489Z,57.78
2023-03-06T19:50:40.542Z,57.98
2023-03-06T19:53:07.897Z,57.93
2023-03-06T19:55:34.973Z,58.22
2023-03-06T19:58:01.943Z,57.56
2023-03-06T20:00:29.048Z,58.05
2023-03-06T20:02:57.016Z,58.00
2023-03-06T20:05:23.596Z,57.81
2023-03-06T20:07:50.283Z,57.06
2023-03-06T20:10:17.505Z,57.06
2023-03-06T20:12:44.458Z,56.69
2023-03-06T20:15:12.033Z,56.56
2023-03-06T20:17:40.702Z,56.71
2023-03-06T20:20:09.824Z,56.46
2023-03-06T20:22:36.456Z,56.65
2023-03-06T20:25:03.716Z,56.71
2023-03-06T20:27:30.410Z,56.50
2023-03-06T20:29:57.221Z,56.91
2023-03-06T20:32:23.896Z,56.33
2023-03-06T20:34:50.625Z,56.52
2023-03-06T20:37:17.374Z,56.09
2023-03-06T20:39:44.108Z,56.79
2023-03-06T20:42:10.691Z,57.47
2023-03-06T20:44:37.388Z,58.45
2023-03-06T20:47:04.244Z,59.55
2023-03-06T20:49:30.856Z,60.69
2023-03-06T20:51:57.536Z,62.08
2023-03-06T20:54:24.172Z,60.05
2023-03-06T20:56:50.802Z,61.06
2023-03-06T20:59:17.551Z,61.24
2023-03-06T21:01:45.726Z,61.28
2023-03-06T21:04:14.261Z,62.24
2023-03-06T21:06:45.338Z,63.02
2023-03-06T21:09:13.620Z,62.97
2023-03-06T21:11:40.493Z,64.05
2023-03-06T21:14:07.189Z,64.73
2023-03-06T21:16:34.148Z,66.30
2023-03-06T21:19:01.272Z,66.24
2023-03-06T21:21:30.801Z,65.85
2023-03-06T21:23:57.799Z,67.16
2023-03-06T21:26:26.951Z,68.26
2023-03-06T21:28:53.918Z,67.63
2023-03-06T21:31:22.110Z,67.34
2023-03-06T21:33:49.815Z,66.53
2023-03-06T21:36:18.739Z,67.68
2023-03-06T21:38:45.331Z,68.52
2023-03-06T21:41:30.661Z,68.11
2023-03-06T21:43:59.373Z,70.47
2023-03-06T21:46:27.496Z,72.08
2023-03-06T21:48:54.844Z,76.71
2023-03-06T21:51:23.700Z,74.18
2023-03-06T21:53:51.289Z,75.22
2023-03-06T21:56:20.767Z,76.83
2023-03-06T21:58:47.506Z,78.27
2023-03-06T22:01:20.085Z,78.71
2023-03-06T22:03:47.386Z,80.26
2023-03-06T22:06:22.737Z,82.51
2023-03-06T22:08:49.333Z,83.22
2023-03-06T22:11:18.644Z,83.30
2023-03-06T22:13:46.274Z,84.50
2023-03-06T22:16:13.718Z,85.79
2023-03-06T22:18:44.365Z,85.82
2023-03-06T22:21:12.934Z,84.88
2023-03-06T22:23:40.606Z,86.07
2023-03-06T22:26:12.856Z,86.35
2023-03-06T22:28:39.622Z,84.38
2023-03-06T22:31:17.660Z,86.30
2023-03-06T22:33:44.595Z,87.79
2023-03-06T22:36:14.472Z,87.13
2023-03-06T22:38:43.457Z,88.52
2023-03-06T22:41:11.459Z,87.52
2023-03-06T22:43:38.086Z,88.63
2023-03-06T22:46:10.004Z,87.18
2023-03-06T22:48:36.670Z,88.53
2023-03-06T22:51:09.394Z,88.58
2023-03-06T22:53:36.803Z,86.71
2023-03-06T22:56:05.549Z,86.81
2023-03-06T22:58:37.349Z,86.90
2023-03-06T23:01:12.225Z,86.34
2023-03-06T23:03:40.660Z,86.50
2023-03-06T23:06:30.493Z,88.35
2023-03-06T23:09:06.048Z,88.99
2023-03-06T23:11:33.501Z,88.06
2023-03-06T23:14:00.734Z,86.87
2023-03-06T23:16:27.352Z,85.60
2023-03-06T23:18:54.173Z,86.69
2023-03-06T23:21:23.028Z,85.54
2023-03-06T23:23:51.544Z,85.65
2023-03-06T23:26:20.492Z,84.98
2023-03-06T23:28:47.271Z,85.76
2023-03-06T23:31:17.849Z,85.10
2023-03-06T23:33:44.508Z,86.20
2023-03-06T23:36:13.638Z,86.15
2023-03-06T23:38:40.829Z,85.69
2023-03-06T23:41:18.616Z,89.84
2023-03-06T23:43:47.040Z,89.05
2023-03-06T23:46:14.133Z,88.99
2023-03-06T23:48:42.031Z,89.25
2023-03-06T23:51:13.002Z,90.09
2023-03-06T23:53:39.673Z,91.10
2023-03-06T23:56:07.316Z,89.81
2023-03-06T23:58:34.311Z,90.45
